Winn, MI

06:24 PM EST on Novembro 22, 2014 (GMT -0500)
Earth and Atmospheric Sciences, CMU | Change Station
CLOSE
Current Station
Personal Weather Stations
Location: Mount Pleasant, MI
Elevation: 794 ft
Nearby Weather Stations

Elev 794 ft 43.58 °N, 84.77 °W | Updated 8 seconds ago

Brétema
Brétema
38.4 °F
Feels Like 36 °F
N
3.8
Vento Variable Vento from SSO
Gusts 5.5 mph

Hoxe
High -- | Low -- °F
--% Chance of Precip.
Yesterday
High -- | Low -- °F
Precip. -- pol
7:42 AM 5:08 PM
Lúa nova, 0% visible
Presión 29.85 pol
Visibilidade 1.8 Millas
Nubes Encapotado 400 ft
Vento Xeado 36 °F
Nivel de Rosada 38 °F
Humidade 99%
Rainfall 0.03 pol
Fondo da neve Not available.
UV 0 out of 12
Pollen .10 out of 12
Air Quality Not available.
Flu Activity Not available.
METAR KMOP 222314Z AUTO 19005KT 1 3/4SM BR OVC004 04/04 A2985 RMK AO2 T00380035

More Conditions Fewer Conditions

Presión 29.85 pol
Visibilidade 1.8 Millas
Nubes Encapotado 400 ft
Vento Xeado 36 °F
Nivel de Rosada 38 °F
Humidade 99%
Rainfall 0.03 pol
Fondo da neve Not available.
UV 0 out of 12
Pollen .10 out of 12
Air Quality Not available.
Flu Activity Not available.
METAR KMOP 222314Z AUTO 19005KT 1 3/4SM BR OVC004 04/04 A2985 RMK AO2 T00380035

More Conditions Fewer Conditions

10-Day Weather Forecast

Almanac

Astronomía

Nov. 22, 2014 Rise Set
Tempo actual
Crepúsculo civil
Crepúsculo náutico
Crepúsculo astronómico
Lúa
Lonxitude da luz visíbel
Length of Day
Tomorrow will be .
, % of the Moon is Illuminated

Today's Extremes

State Highs State Lows

Community

WunderPhotos

Upload Photos

1,772,919 photos uploaded!

WunderBlogs® & News

Nearby

Air Quality

  Air Quality AQ Index Pollutant
Not available.

Snow Depth

Station Depth Elevation

Earthquake Activity

Cidade Distance Mag. Time & Date
Minimum magnitude displayed is 2.5.

Coastal Water Temperatures

Lugar Temperatura

Nearby Weather Stations